Time;durP1;ratioP1;P1;durP2;ratioP2;P2;SDS_P1;SDS_P2;PMS_P1;PMS_P2;Temp;Humidity;BMP_temperature;BMP_pressure;BME280_temperature;BME280_humidity;BME280_pressure;Samples;Min_cycle;Max_cycle;Signal;HPM_P1;HPM_P2
2022/04/14 00:01:26;;;;;;;4.00;3.60;;;9.20;99.90;9.10;100701.00;;;;4879455;28;88046;-68
2022/04/14 00:03:52;;;;;;;5.17;3.80;;;9.10;99.90;9.00;100691.00;;;;4879157;28;88149;-68
2022/04/14 00:06:17;;;;;;;4.20;3.20;;;9.10;99.90;9.00;100691.00;;;;4861191;28;117422;-68
2022/04/14 00:08:43;;;;;;;4.03;3.17;;;9.10;99.90;9.00;100682.00;;;;4879041;28;88088;-68
2022/04/14 00:11:09;;;;;;;4.03;3.47;;;9.10;99.90;8.90;100695.00;;;;4879234;28;108212;-68
2022/04/14 00:13:34;;;;;;;3.03;2.73;;;9.00;99.90;8.90;100692.00;;;;4868369;28;118207;-68
2022/04/14 00:16:00;;;;;;;5.47;2.97;;;9.00;99.90;8.90;100688.00;;;;4859455;28;100384;-68
2022/04/14 00:18:26;;;;;;;3.10;2.73;;;9.00;99.90;9.00;100684.00;;;;4867534;28;87833;-68
2022/04/14 00:20:51;;;;;;;4.87;3.60;;;9.00;99.90;9.00;100683.00;;;;4879073;28;109110;-68
2022/04/14 00:23:17;;;;;;;5.00;3.57;;;9.00;99.90;9.00;100685.00;;;;4876283;28;116930;-68
2022/04/14 00:25:43;;;;;;;4.60;3.27;;;9.10;99.90;9.10;100685.00;;;;4878405;28;117417;-69
2022/04/14 00:28:08;;;;;;;5.03;3.03;;;9.10;99.90;9.10;100684.00;;;;4855182;28;110437;-68
2022/04/14 00:30:34;;;;;;;6.30;3.13;;;9.10;99.90;9.10;100688.00;;;;4860211;28;107717;-68
2022/04/14 00:33:00;;;;;;;8.10;3.13;;;9.20;99.90;9.20;100684.00;;;;4858844;28;117044;-68
2022/04/14 00:35:25;;;;;;;5.90;3.60;;;9.20;99.90;9.20;100689.00;;;;4859736;28;88808;-68
2022/04/14 00:37:51;;;;;;;3.83;3.33;;;9.20;99.90;9.20;100689.00;;;;4862893;28;88712;-68
2022/04/14 00:40:17;;;;;;;7.27;3.73;;;9.30;99.90;9.20;100697.00;;;;4879158;28;87770;-68
2022/04/14 00:42:42;;;;;;;4.47;3.73;;;9.30;99.90;9.20;100695.00;;;;4877446;28;117368;-69
2022/04/14 00:45:09;;;;;;;3.63;3.27;;;9.30;99.90;9.20;100689.00;;;;4860915;28;94502;-67
2022/04/14 00:47:35;;;;;;;4.47;3.60;;;9.30;99.90;9.20;100682.00;;;;4878340;28;87809;-68
2022/04/14 00:50:03;;;;;;;8.33;3.63;;;9.30;99.90;9.30;100681.00;;;;4879450;28;88017;-67
2022/04/14 00:52:28;;;;;;;4.67;3.47;;;9.30;99.90;9.30;100689.00;;;;4878478;28;88148;-67
2022/04/14 00:54:54;;;;;;;5.20;3.17;;;9.30;99.90;9.30;100681.00;;;;4879359;28;88718;-67
2022/04/14 00:57:20;;;;;;;3.60;3.30;;;9.30;99.90;9.30;100688.00;;;;4862371;28;110902;-67
2022/04/14 00:59:46;;;;;;;4.77;3.53;;;9.30;99.90;9.30;100679.00;;;;4858981;28;109105;-67
2022/04/14 01:02:11;;;;;;;6.83;4.13;;;9.40;99.90;9.30;100684.00;;;;4858483;28;89909;-67
2022/04/14 01:04:38;;;;;;;4.37;3.23;;;9.40;99.90;9.30;100684.00;;;;4871478;28;118691;-67
2022/04/14 01:07:09;;;;;;;5.60;3.87;;;9.50;99.90;9.30;100682.00;;;;4871555;28;87932;-67
2022/04/14 01:09:36;;;;;;;3.57;3.27;;;9.40;99.90;9.30;100681.00;;;;4857188;28;107826;-68
2022/04/14 01:12:03;;;;;;;5.87;3.70;;;9.40;99.90;9.40;100680.00;;;;4858994;28;89094;-68
2022/04/14 01:14:37;;;;;;;6.57;4.40;;;9.40;99.90;9.40;100678.00;;;;4859429;28;87938;-68
2022/04/14 01:17:06;;;;;;;4.67;3.30;;;9.10;99.90;9.40;100683.00;;;;4857105;28;87924;-69
2022/04/14 01:19:33;;;;;;;7.13;4.50;;;9.40;99.90;9.40;100680.00;;;;4876524;28;86793;-68
2022/04/14 01:22:20;;;;;;;5.50;3.90;;;9.40;99.90;9.40;100684.00;;;;4878313;28;88342;-68
2022/04/14 01:24:47;;;;;;;6.30;4.40;;;9.40;99.90;9.40;100685.00;;;;4878390;28;87824;-68
2022/04/14 01:27:12;;;;;;;7.13;3.50;;;9.40;99.90;9.30;100683.00;;;;4872661;28;88750;-68
2022/04/14 01:29:38;;;;;;;3.83;3.43;;;9.40;99.90;9.30;100689.00;;;;4873258;28;87738;-68
2022/04/14 01:32:05;;;;;;;6.70;3.87;;;9.40;99.90;9.30;100681.00;;;;4858210;28;117564;-68
2022/04/14 01:34:30;;;;;;;4.37;3.37;;;9.30;99.90;9.20;100679.00;;;;4859436;28;89055;-68
2022/04/14 01:37:01;;;;;;;4.23;3.43;;;9.60;99.90;9.20;100677.00;;;;4859002;28;87906;-68
2022/04/14 01:39:28;;;;;;;4.47;3.97;;;9.30;99.90;9.20;100681.00;;;;4860193;28;88105;-68
2022/04/14 01:41:53;;;;;;;5.23;4.00;;;9.40;99.90;9.10;100683.00;;;;4857758;28;107812;-68
2022/04/14 01:44:19;;;;;;;6.93;4.53;;;9.20;99.90;9.00;100681.00;;;;4873986;28;117819;-68
2022/04/14 01:46:45;;;;;;;4.73;3.27;;;9.10;99.90;9.00;100681.00;;;;4864926;28;111106;-68
2022/04/14 01:49:11;;;;;;;4.43;3.80;;;9.00;99.90;9.00;100689.00;;;;4858642;28;93551;-68
2022/04/14 01:51:38;;;;;;;3.53;3.23;;;9.00;99.90;8.90;100676.00;;;;4858333;28;95045;-68
2022/04/14 01:54:04;;;;;;;7.40;3.90;;;9.00;99.90;8.90;100685.00;;;;4864356;28;103791;-68
2022/04/14 01:56:30;;;;;;;4.20;3.50;;;9.00;99.90;8.90;100676.00;;;;4878135;28;87710;-68
2022/04/14 01:58:56;;;;;;;5.67;3.70;;;9.00;99.90;8.90;100681.00;;;;4864997;28;108991;-68
2022/04/14 02:01:22;;;;;;;5.90;4.00;;;8.90;99.90;8.80;100677.00;;;;4858361;28;117165;-68
2022/04/14 02:03:49;;;;;;;6.13;4.00;;;8.90;99.90;8.80;100678.00;;;;4858702;28;96998;-68
2022/04/14 02:06:15;;;;;;;4.80;4.03;;;8.90;99.90;8.70;100680.00;;;;4858926;28;88437;-68
2022/04/14 02:08:42;;;;;;;8.30;5.30;;;8.80;99.90;8.70;100681.00;;;;4869275;28;87344;-68
2022/04/14 02:11:10;;;;;;;5.30;3.93;;;8.80;99.90;8.60;100678.00;;;;4876779;28;109205;-68
2022/04/14 02:13:36;;;;;;;3.97;3.57;;;8.70;99.90;8.60;100685.00;;;;4873780;28;88622;-68
2022/04/14 02:16:03;;;;;;;8.10;3.57;;;8.70;99.90;8.50;100679.00;;;;4858203;28;89052;-68
2022/04/14 02:18:28;;;;;;;5.43;3.60;;;8.60;99.90;8.40;100686.00;;;;4866545;28;87937;-68
2022/04/14 02:20:54;;;;;;;6.13;3.70;;;8.50;99.90;8.30;100688.00;;;;4865687;28;117084;-68
2022/04/14 02:23:20;;;;;;;8.43;3.97;;;8.40;99.90;8.30;100685.00;;;;4857345;28;118379;-68
2022/04/14 02:25:46;;;;;;;5.70;4.20;;;8.40;99.90;8.20;100685.00;;;;4858583;28;89058;-68
2022/04/14 02:28:13;;;;;;;6.07;4.00;;;8.30;99.90;8.20;100695.00;;;;4873110;28;100161;-68
2022/04/14 02:30:39;;;;;;;7.87;4.13;;;8.20;99.90;8.10;100698.00;;;;4859830;28;89079;-68
2022/04/14 02:33:05;;;;;;;5.43;3.33;;;8.20;99.90;8.10;100695.00;;;;4877186;28;88743;-68
2022/04/14 02:35:31;;;;;;;5.83;3.93;;;8.20;99.90;8.10;100702.00;;;;4877220;28;109962;-69
2022/04/14 02:37:56;;;;;;;5.77;3.80;;;8.20;99.90;8.00;100693.00;;;;4859660;28;88178;-68
2022/04/14 02:40:24;;;;;;;6.93;3.40;;;8.10;99.90;8.00;100700.00;;;;4869640;28;89851;-68
2022/04/14 02:42:53;;;;;;;6.03;3.37;;;8.10;99.90;7.90;100696.00;;;;4872874;28;90071;-68
2022/04/14 02:45:20;;;;;;;3.60;3.30;;;8.00;99.90;7.90;100702.00;;;;4860678;28;87828;-68
2022/04/14 02:47:45;;;;;;;6.37;4.33;;;8.00;99.90;7.80;100698.00;;;;4874450;28;87726;-68
2022/04/14 02:50:11;;;;;;;4.93;4.07;;;7.90;99.90;7.80;100694.00;;;;4858435;28;88129;-68
2022/04/14 02:52:37;;;;;;;4.40;3.40;;;7.90;99.90;7.70;100699.00;;;;4858484;28;88165;-68
2022/04/14 02:55:04;;;;;;;3.70;3.40;;;7.90;99.90;7.70;100695.00;;;;4871693;28;109783;-68
2022/04/14 02:57:30;;;;;;;4.13;3.70;;;7.80;99.90;7.60;100691.00;;;;4859503;28;87103;-68
2022/04/14 02:59:59;;;;;;;5.57;3.50;;;7.70;99.90;7.60;100694.00;;;;4877520;28;88394;-68
2022/04/14 03:02:25;;;;;;;10.10;4.33;;;7.70;99.90;7.50;100688.00;;;;4876092;28;116006;-68
2022/04/14 03:04:51;;;;;;;4.90;3.43;;;7.60;99.90;7.50;100701.00;;;;4875732;28;110417;-68
2022/04/14 03:07:17;;;;;;;7.83;4.33;;;7.60;99.90;7.40;100692.00;;;;4872437;28;87616;-68
2022/04/14 03:09:42;;;;;;;4.90;3.83;;;7.60;99.90;7.30;100693.00;;;;4865320;28;117697;-68
2022/04/14 03:12:09;;;;;;;4.03;3.17;;;7.50;99.90;7.30;100702.00;;;;4875072;28;118207;-68
2022/04/14 03:14:34;;;;;;;5.97;4.90;;;7.40;99.90;7.30;100699.00;;;;4877957;28;87754;-68
2022/04/14 03:17:00;;;;;;;6.17;4.00;;;7.40;99.90;7.20;100690.00;;;;4871613;28;89664;-68
2022/04/14 03:19:26;;;;;;;4.83;3.73;;;7.40;99.90;7.20;100697.00;;;;4861048;28;116730;-68
2022/04/14 03:21:51;;;;;;;4.73;3.77;;;7.40;99.90;7.20;100689.00;;;;4867813;28;118446;-68
2022/04/14 03:24:17;;;;;;;6.27;4.17;;;7.30;99.90;7.20;100693.00;;;;4860567;28;109486;-68
2022/04/14 03:26:43;;;;;;;4.57;3.47;;;7.30;99.90;7.10;100692.00;;;;4865816;28;87556;-69
2022/04/14 03:29:08;;;;;;;8.10;4.97;;;7.30;99.90;7.10;100692.00;;;;4861096;28;120021;-68
2022/04/14 03:31:34;;;;;;;8.03;3.80;;;7.20;99.90;7.00;100684.00;;;;4878808;28;111181;-68
2022/04/14 03:34:00;;;;;;;4.60;4.20;;;7.20;99.90;6.90;100677.00;;;;4879525;28;110107;-68
2022/04/14 03:36:26;;;;;;;5.07;4.00;;;7.10;99.90;6.80;100680.00;;;;4879268;28;107907;-68
2022/04/14 03:38:51;;;;;;;3.73;3.33;;;7.00;99.90;6.80;100681.00;;;;4860696;28;116476;-68
2022/04/14 03:41:17;;;;;;;7.60;4.30;;;7.40;99.90;6.70;100678.00;;;;4859790;28;116594;-68
2022/04/14 03:43:43;;;;;;;4.43;4.03;;;6.80;99.90;6.70;100678.00;;;;4859675;28;104559;-68
2022/04/14 03:46:08;;;;;;;7.40;4.93;;;6.80;99.90;6.60;100682.00;;;;4860928;28;109512;-68
2022/04/14 03:48:34;;;;;;;5.07;4.60;;;6.90;99.90;6.60;100680.00;;;;4859887;28;88959;-68
2022/04/14 03:51:00;;;;;;;4.40;4.00;;;6.70;99.90;6.60;100674.00;;;;4860224;28;107267;-68
2022/04/14 03:53:27;;;;;;;5.47;4.27;;;6.70;99.90;6.50;100673.00;;;;4860928;28;100005;-68
2022/04/14 03:55:52;;;;;;;5.70;4.63;;;6.70;99.90;6.50;100672.00;;;;4879724;28;87678;-68
2022/04/14 03:58:18;;;;;;;4.80;4.30;;;6.70;99.90;6.50;100666.00;;;;4879152;28;101148;-68
2022/04/14 04:00:44;;;;;;;4.97;4.57;;;6.60;99.90;6.40;100672.00;;;;4878267;28;118659;-68
2022/04/14 04:03:11;;;;;;;15.30;9.17;;;7.00;99.90;6.40;100670.00;;;;4879370;28;87715;-68
2022/04/14 04:05:37;;;;;;;34.93;18.83;;;6.70;99.90;6.30;100663.00;;;;4870137;28;87878;-69
2022/04/14 04:08:05;;;;;;;24.00;13.13;;;6.50;99.90;6.30;100669.00;;;;4855701;28;89978;-69
2022/04/14 04:10:30;;;;;;;16.47;9.03;;;6.40;99.90;6.30;100677.00;;;;4860894;28;108382;-68
2022/04/14 04:12:56;;;;;;;12.97;6.80;;;6.60;99.90;6.20;100685.00;;;;4879704;28;88043;-68
2022/04/14 04:15:22;;;;;;;7.03;6.20;;;6.40;99.90;6.20;100684.00;;;;4860348;28;108816;-68
2022/04/14 04:17:51;;;;;;;9.27;5.70;;;6.40;99.90;6.20;100689.00;;;;4861877;28;106539;-68
2022/04/14 04:20:18;;;;;;;11.17;4.77;;;6.30;99.90;6.20;100690.00;;;;4855402;28;88837;-68
2022/04/14 04:22:44;;;;;;;4.70;4.20;;;6.40;99.90;6.20;100699.00;;;;4878171;28;88130;-68
2022/04/14 04:25:09;;;;;;;11.33;4.43;;;6.70;99.90;6.20;100701.00;;;;4878957;28;88220;-68
2022/04/14 04:27:36;;;;;;;8.07;4.27;;;6.80;99.90;6.20;100698.00;;;;4877596;28;118632;-68
2022/04/14 04:30:07;;;;;;;6.57;4.20;;;6.40;99.90;6.30;100698.00;;;;4846197;28;88609;-68
2022/04/14 04:32:33;;;;;;;8.27;5.03;;;6.40;99.90;6.20;100691.00;;;;4861169;28;89451;-67
2022/04/14 04:35:09;;;;;;;8.00;5.27;;;6.40;99.90;6.20;100696.00;;;;4879661;28;93451;-68
2022/04/14 04:37:35;;;;;;;11.00;5.10;;;6.40;99.90;6.20;100700.00;;;;4861059;28;87974;-68
2022/04/14 04:40:01;;;;;;;8.10;5.33;;;6.60;99.90;6.20;100688.00;;;;4878140;28;117401;-69
2022/04/14 04:42:27;;;;;;;5.03;4.13;;;6.40;99.90;6.30;100699.00;;;;4859915;28;90597;-68
2022/04/14 04:44:52;;;;;;;6.63;5.33;;;6.40;99.90;6.30;100702.00;;;;4878523;28;88162;-68
2022/04/14 04:47:20;;;;;;;7.43;5.57;;;6.80;99.90;6.30;100702.00;;;;4877297;28;107416;-68
2022/04/14 04:49:47;;;;;;;5.20;4.63;;;6.40;99.90;6.30;100701.00;;;;4861481;28;87937;-68
2022/04/14 04:52:13;;;;;;;5.90;5.13;;;6.40;99.90;6.30;100710.00;;;;4870300;28;87719;-68
2022/04/14 04:54:39;;;;;;;5.27;4.67;;;6.70;99.90;6.30;100707.00;;;;4870430;28;97453;-68
2022/04/14 04:57:05;;;;;;;7.63;5.00;;;6.70;99.90;6.40;100723.00;;;;4875731;28;117088;-68
2022/04/14 04:59:31;;;;;;;5.43;4.13;;;6.50;99.90;6.50;100715.00;;;;4877615;28;118565;-68
2022/04/14 05:01:56;;;;;;;10.73;5.23;;;7.00;99.90;6.50;100724.00;;;;4877358;28;88036;-68
2022/04/14 05:04:22;;;;;;;5.50;4.73;;;6.60;99.90;6.60;100717.00;;;;4844133;28;108156;-68
2022/04/14 05:06:48;;;;;;;8.23;5.77;;;6.70;99.90;6.70;100727.00;;;;4873239;28;117942;-68
2022/04/14 05:09:13;;;;;;;5.40;4.67;;;6.80;99.90;6.80;100717.00;;;;4868674;28;88715;-68
2022/04/14 05:11:39;;;;;;;6.43;4.87;;;7.10;99.90;7.00;100724.00;;;;4849445;28;103852;-68
2022/04/14 05:14:05;;;;;;;6.07;3.97;;;7.00;99.90;7.10;100726.00;;;;4874624;28;87714;-68
2022/04/14 05:16:30;;;;;;;4.53;3.73;;;7.10;99.90;7.20;100734.00;;;;4872009;28;118684;-68
2022/04/14 05:18:56;;;;;;;5.70;4.40;;;7.20;99.90;7.40;100737.00;;;;4871527;28;117052;-68
2022/04/14 05:21:22;;;;;;;5.77;5.03;;;7.50;99.90;7.60;100723.00;;;;4854330;28;108373;-69
2022/04/14 05:23:47;;;;;;;15.40;5.03;;;7.50;99.90;7.70;100729.00;;;;4872692;28;108397;-69
2022/04/14 05:26:13;;;;;;;5.77;4.40;;;7.70;99.90;7.90;100736.00;;;;4856913;28;92941;-68
2022/04/14 05:28:39;;;;;;;5.07;4.47;;;7.90;99.90;8.10;100730.00;;;;4872992;28;117952;-69
2022/04/14 05:31:04;;;;;;;5.10;4.27;;;8.10;99.90;8.30;100742.00;;;;4874499;28;88798;-69
2022/04/14 05:33:30;;;;;;;8.27;4.57;;;8.30;99.90;8.50;100749.00;;;;4873447;28;109155;-69
2022/04/14 05:35:56;;;;;;;6.40;3.93;;;8.50;99.90;8.70;100758.00;;;;4873578;28;113845;-68
2022/04/14 05:38:21;;;;;;;6.83;4.30;;;8.60;99.90;8.80;100745.00;;;;4855395;28;115779;-69
2022/04/14 05:40:47;;;;;;;6.40;4.93;;;8.80;99.90;9.10;100750.00;;;;4873998;28;111848;-69
2022/04/14 05:43:22;;;;;;;8.53;5.67;;;9.00;99.90;9.30;100754.00;;;;4872781;28;108724;-68
2022/04/14 05:45:48;;;;;;;7.00;5.13;;;9.30;99.90;9.50;100760.00;;;;4869985;28;88074;-69
2022/04/14 05:48:16;;;;;;;7.03;4.87;;;9.50;99.90;9.80;100759.00;;;;4873888;28;88541;-69
2022/04/14 05:50:42;;;;;;;7.33;4.77;;;9.70;99.90;10.00;100748.00;;;;4872652;28;88148;-68
2022/04/14 05:53:09;;;;;;;6.28;4.98;;;9.90;99.90;10.20;100751.00;;;;3986027;28;10001179;-69
2022/04/14 05:55:35;;;;;;;8.13;5.13;;;10.10;99.90;10.50;100754.00;;;;4864603;28;89074;-69
2022/04/14 05:58:05;;;;;;;6.00;5.07;;;10.40;99.90;10.80;100764.00;;;;4871701;28;88035;-68
2022/04/14 06:00:32;;;;;;;6.17;4.77;;;10.60;99.90;11.00;100764.00;;;;4867288;28;88774;-68
2022/04/14 06:02:59;;;;;;;6.20;5.43;;;10.90;99.90;11.30;100757.00;;;;4869759;28;89287;-68
2022/04/14 06:05:30;;;;;;;6.03;3.97;;;11.20;99.90;11.60;100761.00;;;;4854615;28;87762;-68
2022/04/14 06:07:56;;;;;;;9.93;5.57;;;11.50;99.90;11.90;100761.00;;;;4850091;28;87836;-68
2022/04/14 06:10:24;;;;;;;5.33;4.77;;;11.80;99.90;12.10;100769.00;;;;4855452;28;88618;-68
2022/04/14 06:12:51;;;;;;;7.13;4.60;;;12.00;99.90;12.30;100768.00;;;;4850628;28;110508;-68
2022/04/14 06:15:17;;;;;;;5.50;4.87;;;12.20;99.90;12.50;100774.00;;;;4872936;28;90640;-68
2022/04/14 06:17:44;;;;;;;5.87;3.80;;;12.40;99.90;12.80;100762.00;;;;4872543;28;88043;-68
2022/04/14 06:20:11;;;;;;;5.67;3.80;;;12.70;99.90;13.00;100774.00;;;;4871580;28;117367;-68
2022/04/14 06:22:44;;;;;;;7.47;4.27;;;12.90;99.90;13.20;100769.00;;;;4872202;28;89650;-68
2022/04/14 06:25:16;;;;;;;6.77;4.90;;;13.10;99.90;13.40;100777.00;;;;4855150;28;87825;-68
2022/04/14 06:27:46;;;;;;;6.03;4.27;;;13.30;99.90;13.70;100773.00;;;;4872963;28;88000;-68
2022/04/14 06:30:15;;;;;;;7.93;3.80;;;13.50;99.90;13.90;100768.00;;;;4854728;28;88031;-68
2022/04/14 06:32:41;;;;;;;6.30;4.13;;;13.80;99.90;14.20;100773.00;;;;4869984;28;88950;-68
2022/04/14 06:35:13;;;;;;;5.53;4.10;;;14.00;99.60;14.40;100776.00;;;;4869380;28;88022;-68
2022/04/14 06:37:39;;;;;;;9.77;4.00;;;14.30;98.60;14.70;100784.00;;;;4884725;28;86995;-68
2022/04/14 06:40:06;;;;;;;4.87;3.10;;;14.50;97.80;14.90;100782.00;;;;4870580;28;104822;-68
2022/04/14 06:42:32;;;;;;;4.40;3.65;;;14.80;96.50;15.20;100781.00;;;;4870699;28;108519;-68
2022/04/14 06:44:59;;;;;;;5.50;3.20;;;15.00;95.50;15.40;100773.00;;;;4871123;28;95536;-68
2022/04/14 06:47:28;;;;;;;8.52;3.38;;;15.30;94.60;15.60;100778.00;;;;4871033;28;95287;-69
2022/04/14 06:49:54;;;;;;;4.93;3.67;;;15.50;92.80;15.80;100777.00;;;;4871957;28;92581;-69
2022/04/14 06:52:23;;;;;;;5.50;3.80;;;15.60;91.70;15.90;100781.00;;;;4869942;28;88184;-69
2022/04/14 06:54:49;;;;;;;7.30;4.15;;;15.80;91.00;16.10;100780.00;;;;4853983;28;94782;-69
2022/04/14 06:57:16;;;;;;;4.13;3.60;;;16.00;88.20;16.10;100774.00;;;;4874973;28;88506;-68
2022/04/14 06:59:42;;;;;;;8.07;4.82;;;16.00;86.60;16.20;100778.00;;;;4873824;28;118246;-69
2022/04/14 07:02:08;;;;;;;9.43;5.35;;;16.20;85.90;16.30;100779.00;;;;4876279;28;105577;-68
2022/04/14 07:04:34;;;;;;;7.78;4.93;;;16.30;85.30;16.40;100780.00;;;;4869921;28;111734;-67
2022/04/14 07:07:00;;;;;;;7.20;4.25;;;16.30;82.40;16.50;100773.00;;;;4874614;28;87968;-68
2022/04/14 07:09:29;;;;;;;11.50;5.50;;;16.50;80.60;16.60;100776.00;;;;4867166;28;101718;-69
2022/04/14 07:11:56;;;;;;;8.55;5.13;;;16.60;78.90;16.70;100782.00;;;;4872328;28;89991;-70
2022/04/14 07:14:21;;;;;;;6.68;4.18;;;16.60;77.90;16.80;100784.00;;;;4873947;28;87891;-75
2022/04/14 07:16:47;;;;;;;6.63;4.43;;;16.70;77.30;16.90;100783.00;;;;4857197;28;108102;-75
2022/04/14 07:19:13;;;;;;;5.28;4.35;;;16.80;77.50;17.10;100774.00;;;;4876583;28;88134;-72
2022/04/14 07:21:38;;;;;;;5.65;4.00;;;17.00;77.50;17.40;100787.00;;;;4856382;28;117111;-74
2022/04/14 07:24:04;;;;;;;13.90;5.47;;;17.20;76.90;17.70;100783.00;;;;4873207;28;109159;-73
2022/04/14 07:26:30;;;;;;;7.82;5.13;;;17.50;75.90;18.00;100788.00;;;;4874089;28;92206;-72
2022/04/14 07:28:56;;;;;;;8.85;4.57;;;17.80;74.40;18.20;100791.00;;;;4868048;28;92980;-73
2022/04/14 07:31:21;;;;;;;8.82;4.72;;;18.00;72.80;18.50;100791.00;;;;4873387;28;120532;-73
2022/04/14 07:33:47;;;;;;;8.10;5.00;;;18.30;71.80;18.70;100791.00;;;;4871819;28;109722;-72
2022/04/14 07:36:18;;;;;;;6.65;5.45;;;18.50;70.20;18.90;100797.00;;;;4872807;28;108198;-72
2022/04/14 07:38:44;;;;;;;5.30;4.00;;;18.70;68.40;19.10;100793.00;;;;4866462;28;94201;-73
2022/04/14 07:41:09;;;;;;;6.70;4.40;;;18.90;68.30;19.40;100796.00;;;;4871082;28;122984;-72
2022/04/14 07:43:35;;;;;;;5.70;4.30;;;19.20;67.40;19.60;100785.00;;;;4872433;28;110295;-73
2022/04/14 07:46:01;;;;;;;7.88;4.53;;;19.40;66.60;19.90;100795.00;;;;4868525;28;107197;-74
2022/04/14 07:48:27;;;;;;;7.35;4.63;;;19.60;66.20;20.20;100793.00;;;;4854587;28;93198;-74
2022/04/14 07:50:52;;;;;;;8.30;4.45;;;19.90;65.20;20.50;100792.00;;;;4855676;28;93056;-73
2022/04/14 07:53:18;;;;;;;5.72;4.30;;;20.20;63.40;20.60;100794.00;;;;4855230;28;93097;-74
2022/04/14 07:55:44;;;;;;;10.07;4.70;;;20.40;60.70;20.60;100796.00;;;;4874089;28;92989;-73
2022/04/14 07:58:10;;;;;;;8.73;4.72;;;20.50;60.00;20.80;100797.00;;;;4870723;28;122812;-74
2022/04/14 08:00:38;;;;;;;5.57;4.22;;;20.70;59.20;21.00;100800.00;;;;4873379;28;94637;-74
2022/04/14 08:03:06;;;;;;;7.25;5.25;;;20.80;59.30;21.20;100793.00;;;;4872363;28;96713;-72
2022/04/14 08:05:41;;;;;;;5.63;4.35;;;21.00;58.10;21.40;100804.00;;;;4869809;28;92923;-73
2022/04/14 08:08:13;;;;;;;8.18;4.57;;;21.20;58.10;21.70;100801.00;;;;4849819;28;93633;-73
2022/04/14 08:10:45;;;;;;;9.20;5.13;;;21.50;57.90;21.80;100807.00;;;;4855512;28;94465;-73
2022/04/14 08:13:12;;;;;;;7.45;6.07;;;21.60;57.40;22.00;100813.00;;;;4868311;28;92933;-73
2022/04/14 08:15:39;;;;;;;10.07;5.38;;;21.80;57.20;22.10;100816.00;;;;4873585;28;93331;-73
2022/04/14 08:18:08;;;;;;;9.02;5.30;;;21.90;56.50;22.20;100802.00;;;;4871695;28;94281;-73
2022/04/14 08:20:35;;;;;;;10.25;5.40;;;22.00;55.90;22.20;100806.00;;;;4869135;28;93171;-74
2022/04/14 08:23:02;;;;;;;9.43;4.95;;;22.10;55.70;22.20;100816.00;;;;4854121;28;93985;-74
2022/04/14 08:25:31;;;;;;;9.18;6.20;;;22.00;55.20;22.20;100822.00;;;;4873192;28;93007;-73
2022/04/14 08:28:00;;;;;;;9.50;4.75;;;22.00;54.70;22.10;100813.00;;;;4871063;28;112314;-72
2022/04/14 08:30:29;;;;;;;8.93;4.72;;;22.00;54.70;22.10;100822.00;;;;4868892;28;92812;-73
2022/04/14 08:32:56;;;;;;;10.27;5.45;;;21.90;54.60;22.00;100820.00;;;;4872000;28;92876;-74
2022/04/14 08:35:22;;;;;;;11.60;5.90;;;21.90;54.60;22.10;100816.00;;;;4855780;28;92928;-73
2022/04/14 08:37:49;;;;;;;8.98;4.90;;;21.90;54.60;22.20;100825.00;;;;4868761;28;108082;-73
2022/04/14 08:40:18;;;;;;;10.77;5.75;;;22.00;54.40;22.30;100824.00;;;;4855640;28;92190;-71
2022/04/14 08:42:54;;;;;;;8.07;5.22;;;22.00;54.00;22.40;100820.00;;;;4872151;28;92783;-72
2022/04/14 08:45:23;;;;;;;7.93;4.40;;;22.10;53.60;22.50;100829.00;;;;4872465;28;92849;-73
2022/04/14 08:47:51;;;;;;;7.32;5.22;;;22.30;53.40;22.60;100820.00;;;;4871505;28;94216;-72
2022/04/14 08:50:17;;;;;;;6.50;5.22;;;22.40;53.20;22.80;100825.00;;;;4872645;28;95476;-72
2022/04/14 08:52:43;;;;;;;11.18;7.05;;;22.50;52.90;22.90;100822.00;;;;4871573;28;110587;-72
2022/04/14 08:55:13;;;;;;;5.75;4.95;;;22.60;52.60;23.00;100828.00;;;;4866345;28;107177;-74
2022/04/14 08:57:43;;;;;;;11.63;5.53;;;22.70;52.30;23.00;100824.00;;;;4871133;28;93390;-72
2022/04/14 09:00:19;;;;;;;6.68;4.90;;;22.80;51.90;23.00;100827.00;;;;4872218;28;93183;-73
2022/04/14 09:02:46;;;;;;;8.15;3.92;;;22.80;51.60;23.10;100839.00;;;;4863708;28;92929;-74
2022/04/14 09:05:14;;;;;;;14.07;6.80;;;22.80;51.50;23.30;100834.00;;;;4838867;28;92288;-74
2022/04/14 09:07:40;;;;;;;10.98;5.25;;;23.00;51.10;23.50;100835.00;;;;4869591;28;94154;-74
2022/04/14 09:10:07;;;;;;;10.55;6.18;;;23.20;50.90;23.50;100831.00;;;;4868008;28;92870;-73
2022/04/14 09:12:37;;;;;;;9.77;6.07;;;23.30;50.40;23.60;100826.00;;;;4870542;28;93947;-73
2022/04/14 09:15:04;;;;;;;6.15;4.43;;;23.40;50.30;23.70;100834.00;;;;4872257;28;92758;-74
2022/04/14 09:17:30;;;;;;;12.00;6.28;;;23.40;50.00;23.90;100830.00;;;;4870525;28;94490;-73
2022/04/14 09:19:55;;;;;;;10.23;6.20;;;23.50;50.00;24.10;100826.00;;;;4871157;28;121396;-74
2022/04/14 09:22:21;;;;;;;8.20;5.22;;;23.70;49.20;24.10;100837.00;;;;4871859;28;92875;-72
2022/04/14 09:24:55;;;;;;;9.73;4.97;;;23.80;49.00;24.10;100836.00;;;;4869555;28;92906;-73
2022/04/14 09:27:41;;;;;;;7.60;5.75;;;23.80;48.60;24.30;100833.00;;;;4871186;28;94349;-73
2022/04/14 09:30:09;;;;;;;7.03;4.85;;;24.00;48.80;24.50;100838.00;;;;4853067;28;121650;-73
2022/04/14 09:32:44;;;;;;;8.13;6.20;;;24.10;48.50;24.70;100843.00;;;;4837832;28;93115;-73
2022/04/14 09:35:19;;;;;;;7.55;5.28;;;24.30;48.20;24.90;100833.00;;;;4854797;28;92787;-72
2022/04/14 09:37:46;;;;;;;7.90;5.47;;;24.50;47.70;25.00;100834.00;;;;4868687;28;115381;-73
2022/04/14 09:40:12;;;;;;;11.25;5.88;;;24.60;47.20;25.00;100833.00;;;;4870499;28;94689;-72
2022/04/14 09:42:41;;;;;;;10.93;5.47;;;24.70;47.00;25.20;100830.00;;;;4871699;28;92775;-72
2022/04/14 09:45:23;;;;;;;8.10;5.72;;;24.80;46.90;25.40;100829.00;;;;4870799;28;92725;-73
2022/04/14 09:47:50;;;;;;;8.05;5.78;;;24.90;46.80;25.70;100836.00;;;;4870479;28;93100;-72
2022/04/14 09:50:39;;;;;;;9.85;5.68;;;25.20;46.60;26.10;100845.00;;;;4870663;28;108076;-72
2022/04/14 09:53:08;;;;;;;9.50;5.72;;;25.50;46.30;26.10;100847.00;;;;4837675;28;93053;-73
2022/04/14 09:55:49;;;;;;;8.10;5.28;;;25.60;44.30;26.00;100847.00;;;;4871665;28;92240;-72
2022/04/14 09:58:20;;;;;;;6.95;4.32;;;25.60;44.30;26.20;100845.00;;;;4866269;28;106396;-73
2022/04/14 10:00:49;;;;;;;9.40;4.55;;;25.70;44.60;26.30;100838.00;;;;4854048;28;93027;-73
2022/04/14 10:03:27;;;;;;;12.20;5.10;;;25.80;44.20;26.70;100835.00;;;;4870725;28;94137;-74
2022/04/14 10:06:00;;;;;;;8.77;4.80;;;26.10;44.50;26.90;100827.00;;;;4865254;28;95225;-73
2022/04/14 10:08:29;;;;;;;5.32;4.40;;;26.30;43.10;26.90;100825.00;;;;4850422;28;93765;-74
2022/04/14 10:11:08;;;;;;;6.22;4.40;;;26.40;42.90;27.10;100837.00;;;;4881750;28;93187;-74
2022/04/14 10:13:39;;;;;;;4.55;3.63;;;26.50;42.80;27.00;100831.00;;;;4852544;28;93268;-72
2022/04/14 10:16:07;;;;;;;4.93;3.30;;;26.50;42.50;26.90;100853.00;;;;4871866;28;92865;-74
2022/04/14 10:18:33;;;;;;;4.80;3.80;;;26.50;42.60;26.80;100850.00;;;;4852509;28;93538;-72
2022/04/14 10:20:59;;;;;;;8.43;3.58;;;26.30;42.20;26.80;100861.00;;;;4867997;28;122650;-74
2022/04/14 10:23:28;;;;;;;6.65;3.25;;;26.40;42.50;27.00;100844.00;;;;4867116;28;108841;-73
2022/04/14 10:25:54;;;;;;;8.23;3.22;;;26.40;42.20;27.10;100846.00;;;;4852823;28;109164;-72
2022/04/14 10:28:21;;;;;;;7.07;3.55;;;26.50;41.70;27.00;100844.00;;;;4849725;28;94369;-73
2022/04/14 10:30:52;;;;;;;8.10;3.78;;;26.50;41.00;27.00;100844.00;;;;4874257;28;94002;-73
2022/04/14 10:33:22;;;;;;;3.00;2.33;;;26.50;41.70;27.20;100847.00;;;;4869803;28;93375;-73
2022/04/14 10:35:50;;;;;;;3.28;3.08;;;26.60;41.80;27.40;100846.00;;;;4857913;28;93166;-73
2022/04/14 10:38:34;;;;;;;8.25;3.65;;;26.80;41.60;27.70;100851.00;;;;4873456;28;93492;-73
2022/04/14 10:41:13;;;;;;;4.25;2.60;;;27.00;41.50;27.90;100845.00;;;;4855763;28;105425;-74
2022/04/14 10:43:42;;;;;;;5.47;3.15;;;27.30;41.30;28.10;100836.00;;;;4840114;28;92856;-74
2022/04/14 10:46:08;;;;;;;2.35;2.15;;;27.50;40.80;28.30;100836.00;;;;4841154;28;92295;-74
2022/04/14 10:48:36;;;;;;;2.85;2.15;;;27.70;40.80;28.50;100846.00;;;;4871043;28;123251;-72
2022/04/14 10:51:28;;;;;;;3.47;2.58;;;27.90;40.60;28.90;100847.00;;;;4874336;28;103072;-74
2022/04/14 10:54:18;;;;;;;4.75;2.17;;;28.20;40.50;29.20;100844.00;;;;4854312;28;105568;-75